createdAt,value
2019-03-23T00:00:39.523Z,100409.64
2019-03-23T00:02:13.893Z,100411.10
2019-03-23T00:03:47.532Z,100408.55
2019-03-23T00:05:21.760Z,100413.81
2019-03-23T00:06:56.057Z,100405.56
2019-03-23T00:08:29.735Z,100412.62
2019-03-23T00:10:05.365Z,100403.70
2019-03-23T00:11:39.068Z,100411.29
2019-03-23T00:13:13.399Z,100404.31
2019-03-23T00:14:47.123Z,100406.87
2019-03-23T00:16:21.956Z,100403.33
2019-03-23T00:17:55.646Z,100409.05
2019-03-23T00:19:29.387Z,100409.53
2019-03-23T00:21:03.050Z,100405.58
2019-03-23T00:22:36.958Z,100411.30
2019-03-23T00:24:10.676Z,100405.99
2019-03-23T00:25:44.329Z,100404.73
2019-03-23T00:27:18.023Z,100398.03
2019-03-23T00:28:52.250Z,100391.62
2019-03-23T00:30:25.904Z,100391.84
2019-03-23T00:31:59.546Z,100384.42
2019-03-23T00:33:33.230Z,100383.21
2019-03-23T00:35:08.380Z,100374.84
2019-03-23T00:36:42.097Z,100380.84
2019-03-23T00:38:15.805Z,100381.78
2019-03-23T00:39:51.550Z,100379.84
2019-03-23T00:41:25.290Z,100382.72
2019-03-23T00:42:59.608Z,100378.94
2019-03-23T00:44:33.246Z,100369.95
2019-03-23T00:46:07.529Z,100373.63
2019-03-23T00:47:41.564Z,100364.58
2019-03-23T00:49:15.199Z,100357.74
2019-03-23T00:50:48.856Z,100355.23
2019-03-23T00:52:22.562Z,100360.50
2019-03-23T00:53:56.879Z,100356.88
2019-03-23T00:55:31.185Z,100352.21
2019-03-23T00:57:05.486Z,100352.83
2019-03-23T00:58:39.185Z,100346.45
2019-03-23T01:00:14.402Z,100351.28
2019-03-23T01:01:48.064Z,100342.13
2019-03-23T01:03:21.716Z,100347.77
2019-03-23T01:04:55.417Z,100343.45
2019-03-23T01:06:29.117Z,100337.98
2019-03-23T01:08:02.819Z,100324.41
2019-03-23T01:09:37.171Z,100331.23
2019-03-23T01:11:10.955Z,100330.77
2019-03-23T01:12:44.678Z,100323.84
2019-03-23T01:14:18.391Z,100330.50
2019-03-23T01:15:52.091Z,100340.12
2019-03-23T01:17:26.689Z,100334.56
2019-03-23T01:19:00.330Z,100326.78
2019-03-23T01:20:34.348Z,100325.95
2019-03-23T01:22:08.023Z,100319.13
2019-03-23T01:23:41.655Z,100311.70
2019-03-23T01:25:15.962Z,100310.42
2019-03-23T01:26:49.678Z,100300.31
2019-03-23T01:28:23.401Z,100297.43
2019-03-23T01:29:57.637Z,100287.66
2019-03-23T01:31:31.307Z,100293.30
2019-03-23T01:33:05.544Z,100305.23
2019-03-23T01:34:39.708Z,100309.25
2019-03-23T01:36:15.431Z,100303.95
2019-03-23T01:37:49.048Z,100300.66
2019-03-23T01:39:23.418Z,100298.77
2019-03-23T01:40:57.125Z,100299.64
2019-03-23T01:42:31.473Z,100304.45
2019-03-23T01:44:05.790Z,100300.58
2019-03-23T01:45:39.509Z,100296.31
2019-03-23T01:47:16.163Z,100297.46
2019-03-23T01:48:50.474Z,100294.53
2019-03-23T01:50:24.719Z,100298.28
2019-03-23T01:51:59.012Z,100293.14
2019-03-23T01:53:33.404Z,100298.13
2019-03-23T01:55:11.319Z,100300.50
2019-03-23T01:56:47.557Z,100296.30
2019-03-23T01:58:21.013Z,100294.80
2019-03-23T01:59:55.168Z,100298.77
2019-03-23T02:01:28.903Z,100295.70
2019-03-23T02:03:02.630Z,100296.95
2019-03-23T02:04:36.350Z,100289.09
2019-03-23T02:06:10.061Z,100292.37
2019-03-23T02:07:45.291Z,100294.81
2019-03-23T02:09:19.025Z,100297.31
2019-03-23T02:10:52.735Z,100303.31
2019-03-23T02:12:26.524Z,100309.98
2019-03-23T02:14:04.126Z,100310.22
2019-03-23T02:15:37.845Z,100302.84
2019-03-23T02:17:12.969Z,100308.28
2019-03-23T02:18:46.680Z,100308.09
2019-03-23T02:20:21.577Z,100301.33
2019-03-23T02:21:55.309Z,100298.63
2019-03-23T02:23:28.969Z,100295.13
2019-03-23T02:25:02.715Z,100300.59
2019-03-23T02:26:36.407Z,100303.89
2019-03-23T02:28:10.139Z,100296.19
2019-03-23T02:29:43.858Z,100302.11
2019-03-23T02:31:17.549Z,100298.06
2019-03-23T02:32:51.267Z,100292.62
2019-03-23T02:34:24.906Z,100292.57
2019-03-23T02:35:58.674Z,100296.06
2019-03-23T02:37:32.659Z,100291.70
2019-03-23T02:39:07.034Z,100299.01
2019-03-23T02:40:40.731Z,100294.84
2019-03-23T02:42:14.477Z,100291.62
2019-03-23T02:43:48.145Z,100291.83
2019-03-23T02:45:21.851Z,100290.66
2019-03-23T02:46:55.535Z,100295.32
2019-03-23T02:48:29.183Z,100296.80
2019-03-23T02:50:03.229Z,100298.19
2019-03-23T02:51:39.698Z,100302.95
2019-03-23T02:53:12.561Z,100299.09
2019-03-23T02:54:46.257Z,100298.27
2019-03-23T02:56:19.992Z,100305.16
2019-03-23T02:57:53.650Z,100313.30
2019-03-23T02:59:27.301Z,100311.03
2019-03-23T03:01:01.076Z,100312.42
2019-03-23T03:02:34.750Z,100315.34
2019-03-23T03:04:08.398Z,100312.64
2019-03-23T03:05:42.092Z,100310.00
2019-03-23T03:07:15.922Z,100315.84
2019-03-23T03:08:49.635Z,100314.40
2019-03-23T03:10:40.417Z,100316.82
2019-03-23T03:12:14.151Z,100312.91
2019-03-23T03:13:47.811Z,100313.08
2019-03-23T03:15:21.497Z,100319.27
2019-03-23T03:16:55.214Z,100318.98
2019-03-23T03:18:28.931Z,100320.67
2019-03-23T03:20:05.556Z,100321.66
2019-03-23T03:21:39.379Z,100324.98
2019-03-23T03:23:13.029Z,100326.41
2019-03-23T03:24:46.793Z,100331.52
2019-03-23T03:26:20.416Z,100328.35
2019-03-23T03:27:54.068Z,100329.71
2019-03-23T03:29:27.727Z,100338.10
2019-03-23T03:31:01.495Z,100336.33
2019-03-23T03:32:35.214Z,100339.87
2019-03-23T03:34:08.940Z,100342.81
2019-03-23T03:35:42.627Z,100339.25
2019-03-23T03:37:16.375Z,100336.48
2019-03-23T03:38:50.342Z,100335.19
2019-03-23T03:40:24.064Z,100336.11
2019-03-23T03:41:57.836Z,100336.80
2019-03-23T03:43:31.446Z,100346.48
2019-03-23T03:45:07.169Z,100347.00
2019-03-23T03:46:40.882Z,100342.78
2019-03-23T03:48:14.627Z,100341.58
2019-03-23T03:49:48.345Z,100342.05
2019-03-23T03:51:22.083Z,100344.63
2019-03-23T03:52:55.830Z,100351.53
2019-03-23T03:54:29.565Z,100344.64
2019-03-23T03:56:03.221Z,100346.38
2019-03-23T03:57:36.889Z,100351.25
2019-03-23T03:59:10.573Z,100349.48
2019-03-23T04:00:44.290Z,100343.61
2019-03-23T04:02:18.074Z,100346.55
2019-03-23T04:03:51.801Z,100350.05
2019-03-23T04:05:25.504Z,100345.02
2019-03-23T04:06:59.220Z,100345.52
2019-03-23T04:08:32.892Z,100351.25
2019-03-23T04:10:08.597Z,100350.72
2019-03-23T04:11:42.379Z,100345.66
2019-03-23T04:13:16.091Z,100345.83
2019-03-23T04:14:49.733Z,100349.90
2019-03-23T04:16:23.378Z,100350.56
2019-03-23T04:17:57.142Z,100347.34
2019-03-23T04:19:30.764Z,100358.81
2019-03-23T04:21:04.513Z,100355.76
2019-03-23T04:22:38.246Z,100355.73
2019-03-23T04:24:11.917Z,100332.98
2019-03-23T04:25:45.677Z,100356.46
2019-03-23T04:27:19.276Z,100357.89
2019-03-23T04:28:52.914Z,100358.05
2019-03-23T04:30:26.662Z,100354.91
2019-03-23T04:32:00.427Z,100360.61
2019-03-23T04:33:34.143Z,100351.28
2019-03-23T04:35:08.954Z,100349.33
2019-03-23T04:36:42.671Z,100353.32
2019-03-23T04:38:22.482Z,100347.32
2019-03-23T04:39:52.329Z,100353.64
2019-03-23T04:41:26.068Z,100344.20
2019-03-23T04:42:59.808Z,100351.05
2019-03-23T04:44:34.111Z,100352.57
2019-03-23T04:46:07.826Z,100349.98
2019-03-23T04:47:41.470Z,100351.78
2019-03-23T04:49:15.236Z,100347.52
2019-03-23T04:50:48.872Z,100349.23
2019-03-23T04:52:22.509Z,100361.80
2019-03-23T04:53:56.220Z,100363.59
2019-03-23T04:55:30.012Z,100357.97
2019-03-23T04:57:03.834Z,100353.96
2019-03-23T04:58:37.574Z,100351.83
2019-03-23T05:00:14.244Z,100353.05
2019-03-23T05:01:47.899Z,100358.60
2019-03-23T05:03:21.651Z,100357.30
2019-03-23T05:04:55.298Z,100357.30
2019-03-23T05:06:28.966Z,100355.80
2019-03-23T05:08:02.740Z,100357.38
2019-03-23T05:09:36.480Z,100358.16
2019-03-23T05:11:10.182Z,100358.66
2019-03-23T05:12:43.887Z,100355.09
2019-03-23T05:14:17.657Z,100360.53
2019-03-23T05:15:51.417Z,100356.55
2019-03-23T05:17:25.140Z,100353.36
2019-03-23T05:18:58.783Z,100353.95
2019-03-23T05:20:33.000Z,100354.12
2019-03-23T05:22:07.989Z,100352.95
2019-03-23T05:23:42.271Z,100349.01
2019-03-23T05:25:25.147Z,100354.91
2019-03-23T05:26:59.885Z,100357.20
2019-03-23T05:28:34.224Z,100354.36
2019-03-23T05:30:09.033Z,100355.80
2019-03-23T05:31:43.331Z,100358.69
2019-03-23T05:33:17.609Z,100360.92
2019-03-23T05:34:51.325Z,100361.07
2019-03-23T05:36:25.631Z,100352.08
2019-03-23T05:37:59.860Z,100345.58
2019-03-23T05:39:34.090Z,100347.01
2019-03-23T05:41:08.705Z,100345.02
2019-03-23T05:42:43.332Z,100339.46
2019-03-23T05:44:17.673Z,100338.72
2019-03-23T05:45:51.985Z,100349.27
2019-03-23T05:47:26.274Z,100349.80
2019-03-23T05:49:00.491Z,100346.23
2019-03-23T05:50:34.809Z,100346.64
2019-03-23T05:52:09.105Z,100341.32
2019-03-23T05:53:43.435Z,100340.34
2019-03-23T05:55:17.681Z,100350.30
2019-03-23T05:56:52.007Z,100348.98
2019-03-23T05:58:26.256Z,100347.45
2019-03-23T06:00:00.527Z,100344.00
2019-03-23T06:01:34.863Z,100345.14
2019-03-23T06:03:09.136Z,100339.44
2019-03-23T06:04:43.517Z,100340.27
2019-03-23T06:06:17.838Z,100338.41
2019-03-23T06:07:52.154Z,100345.35
2019-03-23T06:09:26.393Z,100344.02
2019-03-23T06:11:00.619Z,100344.96
2019-03-23T06:12:34.859Z,100339.48
2019-03-23T06:14:09.237Z,100334.34
2019-03-23T06:15:43.548Z,100336.35
2019-03-23T06:17:17.869Z,100335.30
2019-03-23T06:18:52.106Z,100334.03
2019-03-23T06:20:26.380Z,100335.69
2019-03-23T06:22:00.727Z,100336.85
2019-03-23T06:23:36.455Z,100338.50
2019-03-23T06:25:11.194Z,100339.75
2019-03-23T06:26:45.541Z,100334.41
2019-03-23T06:28:20.139Z,100333.29
2019-03-23T06:29:54.360Z,100333.47
2019-03-23T06:31:28.728Z,100339.45
2019-03-23T06:33:02.950Z,100340.41
2019-03-23T06:34:37.182Z,100338.50
2019-03-23T06:36:11.492Z,100345.01
2019-03-23T06:37:45.787Z,100347.24
2019-03-23T06:39:20.022Z,100344.81
2019-03-23T06:40:54.350Z,100346.95
2019-03-23T06:42:28.980Z,100344.77
2019-03-23T06:44:03.257Z,100340.86
2019-03-23T06:45:37.592Z,100340.97
2019-03-23T06:47:11.893Z,100343.75
2019-03-23T06:48:46.129Z,100345.91
2019-03-23T06:50:20.397Z,100338.39
2019-03-23T06:51:54.680Z,100336.66
2019-03-23T06:53:28.982Z,100343.34
2019-03-23T06:55:04.032Z,100333.96
2019-03-23T06:56:38.335Z,100339.00
2019-03-23T06:58:12.682Z,100345.59
2019-03-23T06:59:47.012Z,100347.45
2019-03-23T07:01:21.244Z,100344.38
2019-03-23T07:02:55.570Z,100338.94
2019-03-23T07:04:29.939Z,100338.02
2019-03-23T07:06:04.352Z,100337.12
2019-03-23T07:07:38.678Z,100331.09
2019-03-23T07:09:16.356Z,100333.13
2019-03-23T07:10:48.900Z,100330.92
2019-03-23T07:12:23.248Z,100329.53
2019-03-23T07:13:58.044Z,100327.05
2019-03-23T07:15:32.418Z,100332.20
2019-03-23T07:17:06.717Z,100324.22
2019-03-23T07:18:41.043Z,100326.92
2019-03-23T07:20:15.410Z,100323.04
2019-03-23T07:21:49.683Z,100326.48
2019-03-23T07:23:24.258Z,100320.78
2019-03-23T07:24:58.532Z,100322.70
2019-03-23T07:26:32.849Z,100316.28
2019-03-23T07:28:08.055Z,100306.62
2019-03-23T07:29:42.388Z,100307.25
2019-03-23T07:31:16.742Z,100304.08
2019-03-23T07:32:51.050Z,100307.27
2019-03-23T07:34:26.767Z,100284.36
2019-03-23T07:36:01.117Z,100298.98
2019-03-23T07:37:35.431Z,100293.72
2019-03-23T07:39:09.754Z,100289.48
2019-03-23T07:40:43.995Z,100285.12
2019-03-23T07:42:18.241Z,100281.87
2019-03-23T07:43:52.854Z,100281.20
2019-03-23T07:45:27.173Z,100277.50
2019-03-23T07:47:02.439Z,100275.58
2019-03-23T07:48:36.765Z,100270.48
2019-03-23T07:50:12.992Z,100261.95
2019-03-23T07:51:48.110Z,100271.14
2019-03-23T07:53:24.374Z,100261.06
2019-03-23T07:55:01.564Z,100263.66
2019-03-23T07:56:35.808Z,100258.74
2019-03-23T07:58:10.146Z,100250.28
2019-03-23T07:59:44.482Z,100254.00
2019-03-23T08:01:19.298Z,100251.92
2019-03-23T08:02:53.520Z,100245.92
2019-03-23T08:04:27.766Z,100242.41
2019-03-23T08:06:02.040Z,100239.77
2019-03-23T08:07:36.356Z,100240.42
2019-03-23T08:09:20.081Z,100237.31
2019-03-23T08:10:46.599Z,100233.92
2019-03-23T08:12:20.957Z,100235.89
2019-03-23T08:13:55.330Z,100231.91
2019-03-23T08:15:29.624Z,100228.23
2019-03-23T08:17:04.081Z,100226.08
2019-03-23T08:18:38.391Z,100221.46
2019-03-23T08:20:12.733Z,100223.64
2019-03-23T08:21:46.955Z,100220.64
2019-03-23T08:23:21.286Z,100213.42
2019-03-23T08:24:55.617Z,100211.62
2019-03-23T08:26:29.860Z,100206.59
2019-03-23T08:28:04.204Z,100202.76
2019-03-23T08:29:38.444Z,100190.27
2019-03-23T08:31:12.868Z,100182.36
2019-03-23T08:32:47.219Z,100187.05
2019-03-23T08:34:21.434Z,100177.19
2019-03-23T08:35:55.671Z,100178.52
2019-03-23T08:37:29.913Z,100175.86
2019-03-23T08:39:05.677Z,100176.16
2019-03-23T08:40:39.992Z,100173.91
2019-03-23T08:42:14.298Z,100122.19
2019-03-23T08:43:48.669Z,100170.59
2019-03-23T08:45:23.109Z,100175.37
2019-03-23T08:46:57.443Z,100171.38
2019-03-23T08:48:31.700Z,100167.40
2019-03-23T08:50:07.521Z,100167.32
2019-03-23T08:51:41.877Z,100172.37
2019-03-23T08:53:16.112Z,100174.50
2019-03-23T08:54:50.396Z,100168.33
2019-03-23T08:56:24.790Z,100166.96
2019-03-23T08:57:59.397Z,100166.03
2019-03-23T08:59:33.702Z,100165.72
2019-03-23T09:01:08.030Z,100164.12
2019-03-23T09:02:42.483Z,100164.52
2019-03-23T09:04:16.752Z,100160.67
2019-03-23T09:05:51.187Z,100154.63
2019-03-23T09:07:25.563Z,100158.87
2019-03-23T09:08:59.869Z,100157.59
2019-03-23T09:10:34.213Z,100157.26
2019-03-23T09:12:08.591Z,100154.52
2019-03-23T09:13:42.936Z,100152.84
2019-03-23T09:15:17.290Z,100153.11
2019-03-23T09:16:51.625Z,100147.98
2019-03-23T09:18:26.382Z,100146.80
2019-03-23T09:20:00.623Z,100142.83
2019-03-23T09:21:34.856Z,100139.91
2019-03-23T09:23:09.124Z,100140.45
2019-03-23T09:24:43.421Z,100135.22
2019-03-23T09:26:17.668Z,100125.72
2019-03-23T09:27:51.978Z,100120.66
2019-03-23T09:29:26.289Z,100120.38
2019-03-23T09:31:00.945Z,100103.40
2019-03-23T09:32:35.274Z,100112.23
2019-03-23T09:34:09.599Z,100113.62
2019-03-23T09:35:43.901Z,100112.25
2019-03-23T09:37:18.247Z,100105.19
2019-03-23T09:38:52.503Z,100101.91
2019-03-23T09:40:26.740Z,100097.31
2019-03-23T09:42:01.004Z,100100.12
2019-03-23T09:43:35.392Z,100099.45
2019-03-23T09:45:10.034Z,100092.16
2019-03-23T09:46:44.656Z,100090.45
2019-03-23T09:48:18.965Z,100091.19
2019-03-23T09:49:53.340Z,100085.23
2019-03-23T09:51:29.346Z,100078.89
2019-03-23T09:53:03.974Z,100079.34
2019-03-23T09:54:38.215Z,100074.31
2019-03-23T09:56:12.949Z,100073.55
2019-03-23T09:57:47.276Z,100067.08
2019-03-23T09:59:21.564Z,100065.72
2019-03-23T10:00:55.918Z,100060.41
2019-03-23T10:02:30.203Z,100056.11
2019-03-23T10:04:04.941Z,100052.09
2019-03-23T10:05:39.249Z,100053.28
2019-03-23T10:07:13.592Z,100050.94
2019-03-23T10:08:47.960Z,100046.67
2019-03-23T10:10:22.356Z,100041.19
2019-03-23T10:11:58.310Z,100039.27
2019-03-23T10:13:32.589Z,100041.75
2019-03-23T10:15:08.709Z,100045.91
2019-03-23T10:16:44.121Z,100047.09
2019-03-23T10:18:18.362Z,100048.70
2019-03-23T10:19:52.979Z,100042.23
2019-03-23T10:21:29.136Z,100042.00
2019-03-23T10:23:03.463Z,100044.81
2019-03-23T10:24:38.111Z,100047.44
2019-03-23T10:26:15.423Z,100046.83
2019-03-23T10:27:51.138Z,100045.16
2019-03-23T10:31:21.430Z,100046.28
2019-03-23T10:32:57.948Z,100042.50
2019-03-23T10:34:33.727Z,100035.64
2019-03-23T10:36:12.216Z,99996.47
2019-03-23T10:37:46.852Z,100029.03
2019-03-23T10:39:21.157Z,100022.23
2019-03-23T10:40:55.539Z,100019.31
2019-03-23T10:42:29.889Z,99971.03
2019-03-23T10:44:04.242Z,100022.56
2019-03-23T10:45:44.180Z,100028.45
2019-03-23T10:47:15.178Z,100029.10
2019-03-23T10:48:49.482Z,100024.00
2019-03-23T10:50:23.876Z,100023.61
2019-03-23T10:51:58.209Z,100024.84
2019-03-23T10:53:32.593Z,100021.85
2019-03-23T10:55:08.141Z,100024.85
2019-03-23T10:56:42.484Z,100019.50
2019-03-23T10:58:18.397Z,100015.76
2019-03-23T10:59:52.640Z,100015.88
2019-03-23T11:01:26.968Z,100011.39
2019-03-23T11:03:01.360Z,100003.27
2019-03-23T11:04:35.702Z,99999.90
2019-03-23T11:06:10.144Z,100001.16
2019-03-23T11:07:44.789Z,99997.53
2019-03-23T11:09:19.197Z,99994.67
2019-03-23T11:10:53.488Z,99991.34
2019-03-23T11:12:27.801Z,99982.41
2019-03-23T11:14:02.051Z,99994.84
2019-03-23T11:15:36.324Z,99988.00
2019-03-23T11:17:10.573Z,99992.60
2019-03-23T11:18:45.200Z,99983.48
2019-03-23T11:20:19.559Z,99998.06
2019-03-23T11:21:53.870Z,99994.96
2019-03-23T11:23:28.122Z,99996.00
2019-03-23T11:25:02.445Z,99985.37
2019-03-23T11:26:36.756Z,99987.86
2019-03-23T11:28:11.020Z,99981.53
2019-03-23T11:29:45.759Z,99980.67
2019-03-23T11:31:20.084Z,99981.77
2019-03-23T11:32:54.407Z,99979.13
2019-03-23T11:34:28.740Z,99972.84
2019-03-23T11:36:03.080Z,99968.31
2019-03-23T11:37:38.007Z,99963.03
2019-03-23T11:39:12.903Z,99967.50
2019-03-23T11:40:53.845Z,99960.33
2019-03-23T11:42:23.131Z,99963.78
2019-03-23T11:43:57.484Z,99963.47
2019-03-23T11:45:35.433Z,99961.09
2019-03-23T11:47:12.023Z,99954.78
2019-03-23T11:48:46.607Z,99959.19
2019-03-23T11:50:22.470Z,99953.76
2019-03-23T11:51:56.709Z,99958.49
2019-03-23T11:53:31.020Z,99951.75
2019-03-23T11:55:07.361Z,99941.42
2019-03-23T11:56:41.607Z,99946.19
2019-03-23T11:58:16.050Z,99945.73
2019-03-23T11:59:50.398Z,99940.98
2019-03-23T12:01:24.641Z,99939.99
2019-03-23T12:02:58.943Z,99946.88
2019-03-23T12:04:33.246Z,99939.25
2019-03-23T12:06:07.521Z,99924.75
2019-03-23T12:07:41.877Z,99932.05
2019-03-23T12:09:16.212Z,99935.89
2019-03-23T12:10:50.482Z,99931.84
2019-03-23T12:12:24.797Z,99926.87
2019-03-23T12:14:00.748Z,99919.32
2019-03-23T12:15:35.075Z,99916.86
2019-03-23T12:17:09.333Z,99917.51
2019-03-23T12:18:43.600Z,99916.94
2019-03-23T12:20:17.942Z,99910.65
2019-03-23T12:21:52.199Z,99915.01
2019-03-23T12:23:26.563Z,99919.11
2019-03-23T12:25:00.871Z,99912.86
2019-03-23T12:26:35.299Z,99902.20
2019-03-23T12:28:09.517Z,99904.91
2019-03-23T12:29:43.775Z,99905.12
2019-03-23T12:31:18.076Z,99911.89
2019-03-23T12:32:52.440Z,99911.14
2019-03-23T12:34:26.747Z,99906.39
2019-03-23T12:36:00.975Z,99903.13
2019-03-23T12:37:35.270Z,99896.44
2019-03-23T12:39:09.637Z,99901.15
2019-03-23T12:40:43.882Z,99896.53
2019-03-23T12:42:18.499Z,99900.57
2019-03-23T12:43:52.758Z,99907.84
2019-03-23T12:45:27.138Z,99901.47
2019-03-23T12:47:02.449Z,99900.34
2019-03-23T12:48:36.715Z,99891.84
2019-03-23T12:50:12.518Z,99892.76
2019-03-23T12:51:46.821Z,99894.73
2019-03-23T12:53:21.207Z,99885.92
2019-03-23T12:54:55.795Z,99892.25
2019-03-23T12:56:30.107Z,99894.36
2019-03-23T12:58:04.326Z,99884.68
2019-03-23T12:59:38.613Z,99882.89
2019-03-23T13:01:12.903Z,99887.58
2019-03-23T13:02:47.205Z,99881.47
2019-03-23T13:04:21.648Z,99875.06
2019-03-23T13:05:55.953Z,99884.30
2019-03-23T13:07:31.872Z,99876.80
2019-03-23T13:09:07.694Z,99878.41
2019-03-23T13:10:43.447Z,99871.22
2019-03-23T13:12:17.763Z,99874.97
2019-03-23T13:13:52.109Z,99871.22
2019-03-23T13:15:26.444Z,99870.81
2019-03-23T13:17:02.733Z,99866.05
2019-03-23T13:18:36.804Z,99860.95
2019-03-23T13:20:12.518Z,99858.00
2019-03-23T13:21:47.072Z,99861.31
2019-03-23T13:23:22.899Z,99866.35
2019-03-23T13:24:57.118Z,99853.98
2019-03-23T13:26:31.378Z,99854.66
2019-03-23T13:28:05.679Z,99860.62
2019-03-23T13:29:40.450Z,99852.95
2019-03-23T13:31:14.784Z,99847.67
2019-03-23T13:32:49.547Z,99848.44
2019-03-23T13:34:23.808Z,99850.38
2019-03-23T13:35:58.193Z,99850.48
2019-03-23T13:37:32.481Z,99857.37
2019-03-23T13:39:06.883Z,99853.09
2019-03-23T13:40:41.180Z,99852.59
2019-03-23T13:42:15.557Z,99841.59
2019-03-23T13:43:49.842Z,99847.80
2019-03-23T13:45:24.685Z,99849.56
2019-03-23T13:46:58.980Z,99844.61
2019-03-23T13:48:33.255Z,99842.91
2019-03-23T13:50:09.509Z,99850.05
2019-03-23T13:51:44.270Z,99850.00
2019-03-23T13:53:18.531Z,99843.45
2019-03-23T13:54:52.780Z,99847.65
2019-03-23T13:56:27.084Z,99846.36
2019-03-23T13:58:09.522Z,99847.55
2019-03-23T13:59:43.843Z,99848.48
2019-03-23T14:01:18.421Z,99846.74
2019-03-23T14:02:52.706Z,99842.36
2019-03-23T14:04:27.014Z,99843.91
2019-03-23T14:06:01.297Z,99841.14
2019-03-23T14:07:35.533Z,99842.27
2019-03-23T14:09:09.863Z,99835.82
2019-03-23T14:10:44.218Z,99832.35
2019-03-23T14:12:18.438Z,99834.05
2019-03-23T14:13:52.816Z,99828.98
2019-03-23T14:15:27.148Z,99827.73
2019-03-23T14:17:01.446Z,99831.19
2019-03-23T14:18:35.931Z,99825.41
2019-03-23T14:20:10.276Z,99827.28
2019-03-23T14:21:44.559Z,99823.96
2019-03-23T14:23:18.830Z,99830.89
2019-03-23T14:24:53.159Z,99824.98
2019-03-23T14:26:27.506Z,99828.41
2019-03-23T14:28:01.747Z,99824.55
2019-03-23T14:29:35.952Z,99823.24
2019-03-23T14:31:10.799Z,99823.25
2019-03-23T14:32:45.123Z,99825.64
2019-03-23T14:34:19.436Z,99828.48
2019-03-23T14:35:53.743Z,99821.25
2019-03-23T14:37:28.110Z,99829.97
2019-03-23T14:39:02.456Z,99831.71
2019-03-23T14:40:36.757Z,99827.69
2019-03-23T14:42:10.992Z,99832.38
2019-03-23T14:43:45.859Z,99826.56
2019-03-23T14:45:20.109Z,99830.30
2019-03-23T14:46:54.766Z,99833.55
2019-03-23T14:48:29.006Z,99828.59
2019-03-23T14:50:03.398Z,99827.78
2019-03-23T14:51:37.661Z,99826.05
2019-03-23T14:53:12.109Z,99820.52
2019-03-23T14:54:46.439Z,99824.40
2019-03-23T14:56:20.745Z,99822.46
2019-03-23T14:57:55.087Z,99829.88
2019-03-23T14:59:29.393Z,99840.13
2019-03-23T15:01:04.233Z,99829.19
2019-03-23T15:02:38.757Z,99837.64
2019-03-23T15:04:13.071Z,99835.70
2019-03-23T15:05:48.153Z,99838.63
2019-03-23T15:07:22.383Z,99839.33
2019-03-23T15:08:56.706Z,99835.54
2019-03-23T15:10:30.968Z,99837.87
2019-03-23T15:12:14.499Z,99829.25
2019-03-23T15:13:41.481Z,99834.97
2019-03-23T15:15:15.797Z,99833.56
2019-03-23T15:16:50.164Z,99835.92
2019-03-23T15:18:25.061Z,99839.03
2019-03-23T15:19:59.266Z,99844.16
2019-03-23T15:21:33.585Z,99841.28
2019-03-23T15:23:07.810Z,99843.11
2019-03-23T15:24:42.114Z,99842.45
2019-03-23T15:26:16.377Z,99844.75
2019-03-23T15:27:50.663Z,99839.90
2019-03-23T15:29:24.995Z,99838.82
2019-03-23T15:30:59.244Z,99840.72
2019-03-23T15:32:33.560Z,99837.73
2019-03-23T15:34:08.197Z,99836.66
2019-03-23T15:35:42.536Z,99830.05
2019-03-23T15:37:17.576Z,99840.53
2019-03-23T15:38:51.804Z,99836.63
2019-03-23T15:40:26.180Z,99833.19
2019-03-23T15:42:00.522Z,99836.70
2019-03-23T15:43:34.746Z,99833.27
2019-03-23T15:45:11.536Z,99833.86
2019-03-23T15:46:45.883Z,99835.61
2019-03-23T15:48:20.115Z,99835.97
2019-03-23T15:49:54.359Z,99832.91
2019-03-23T15:51:28.699Z,99835.05
2019-03-23T15:53:03.079Z,99843.81
2019-03-23T15:54:37.828Z,99840.25
2019-03-23T15:56:12.124Z,99835.75
2019-03-23T15:57:46.497Z,99841.48
2019-03-23T15:59:20.837Z,99844.61
2019-03-23T16:00:55.198Z,99844.77
2019-03-23T16:02:29.909Z,99842.39
2019-03-23T16:04:04.229Z,99849.02
2019-03-23T16:05:38.458Z,99842.45
2019-03-23T16:07:12.748Z,99842.25
2019-03-23T16:08:46.976Z,99847.39
2019-03-23T16:10:21.216Z,99849.52
2019-03-23T16:11:55.525Z,99850.90
2019-03-23T16:13:29.967Z,99850.84
2019-03-23T16:15:11.870Z,99850.77
2019-03-23T16:16:46.165Z,99851.59
2019-03-23T16:18:20.463Z,99846.25
2019-03-23T16:19:55.259Z,99851.73
2019-03-23T16:21:29.495Z,99848.56
2019-03-23T16:23:03.802Z,99851.97
2019-03-23T16:24:38.036Z,99849.66
2019-03-23T16:26:12.257Z,99852.72
2019-03-23T16:27:47.963Z,99845.36
2019-03-23T16:29:22.199Z,99844.80
2019-03-23T16:30:56.563Z,99849.40
2019-03-23T16:32:30.910Z,99860.11
2019-03-23T16:34:05.209Z,99859.73
2019-03-23T16:35:39.515Z,99860.20
2019-03-23T16:37:13.798Z,99858.30
2019-03-23T16:38:48.167Z,99862.07
2019-03-23T16:40:22.469Z,99858.80
2019-03-23T16:41:56.764Z,99864.59
2019-03-23T16:43:31.175Z,99864.80
2019-03-23T16:45:08.517Z,99867.38
2019-03-23T16:46:42.821Z,99861.14
2019-03-23T16:48:17.108Z,99863.30
2019-03-23T16:49:53.034Z,99866.95
2019-03-23T16:51:29.822Z,99867.03
2019-03-23T16:53:04.122Z,99864.83
2019-03-23T16:54:38.730Z,99864.59
2019-03-23T16:56:13.065Z,99865.55
2019-03-23T16:57:47.436Z,99873.55
2019-03-23T16:59:21.729Z,99861.77
2019-03-23T17:00:55.944Z,99871.64
2019-03-23T17:02:30.185Z,99877.55
2019-03-23T17:04:04.430Z,99871.98
2019-03-23T17:05:38.637Z,99872.55
2019-03-23T17:07:13.298Z,99874.64
2019-03-23T17:08:47.586Z,99872.36
2019-03-23T17:10:21.933Z,99870.23
2019-03-23T17:11:56.228Z,99878.25
2019-03-23T17:13:30.528Z,99877.39
2019-03-23T17:15:06.836Z,99876.56
2019-03-23T17:16:41.220Z,99876.42
2019-03-23T17:18:15.533Z,99873.71
2019-03-23T17:19:49.817Z,99877.26
2019-03-23T17:21:24.064Z,99874.63
2019-03-23T17:22:58.732Z,99876.00
2019-03-23T17:24:33.055Z,99878.25
2019-03-23T17:26:07.344Z,99876.38
2019-03-23T17:27:41.578Z,99878.67
2019-03-23T17:29:15.866Z,99877.21
2019-03-23T17:30:50.142Z,99875.33
2019-03-23T17:32:24.466Z,99878.66
2019-03-23T17:33:58.809Z,99881.06
2019-03-23T17:35:33.154Z,99892.42
2019-03-23T17:37:07.437Z,99891.70
2019-03-23T17:38:42.377Z,99893.73
2019-03-23T17:40:16.655Z,99886.92
2019-03-23T17:41:52.882Z,99898.61
2019-03-23T17:43:27.135Z,99893.36
2019-03-23T17:45:01.799Z,99899.89
2019-03-23T17:46:36.197Z,99901.56
2019-03-23T17:48:10.525Z,99900.84
2019-03-23T17:49:44.837Z,99906.64
2019-03-23T17:51:19.172Z,99901.79
2019-03-23T17:52:53.470Z,99907.73
2019-03-23T17:54:29.344Z,99902.03
2019-03-23T17:56:06.247Z,99905.86
2019-03-23T17:57:39.874Z,99903.56
2019-03-23T17:59:14.122Z,99901.24
2019-03-23T18:00:48.419Z,99901.66
2019-03-23T18:02:23.054Z,99906.57
2019-03-23T18:03:57.312Z,99900.97
2019-03-23T18:05:31.636Z,99904.60
2019-03-23T18:07:05.974Z,99902.65
2019-03-23T18:08:43.083Z,99909.02
2019-03-23T18:10:17.440Z,99912.80
2019-03-23T18:11:51.711Z,99917.91